This is the latest recevied weather packets stored in our database for station/object SQ5RTW-1. If no packets are shown the sender has not sent any weather packets the latest 10 day(s).
| Time | Temp. | Humidity | Pressure | Rain* | Wind** | Luminosity | Snow |
|---|---|---|---|---|---|---|---|
| 1777669773 | 15° C | 58% | 1027.3 hPa | - | - | - | - |
| 1777669100 | 12.78° C | 59% | 1027.4 hPa | - | - | - | - |
| 1777668135 | 13.89° C | 52% | 1027.4 hPa | - | - | - | - |
| 1777667234 | 14.44° C | 50% | 1027.3 hPa | - | - | - | - |
| 1777666333 | 14.44° C | 51% | 1027.2 hPa | - | - | - | - |
| 1777665432 | 16.11° C | 49% | 1027.2 hPa | - | - | - | - |
| 1777665415 | 17.22° C | 50% | 1027.3 hPa | - | - | - | - |
| 1777665391 | 15° C | 50% | 1027.3 hPa | - | - | - | - |
| 1777664490 | 14.44° C | 51% | 1027.3 hPa | - | - | - | - |
| 1777663589 | 14.44° C | 53% | 1027.2 hPa | - | - | - | - |
| 1777662688 | 14.44° C | 52% | 1027.1 hPa | - | - | - | - |
| 1777661787 | 16.67° C | 49% | 1027 hPa | - | - | - | - |
| 1777661771 | 17.78° C | 50% | 1027 hPa | - | - | - | - |
| 1777661746 | 15.56° C | 50% | 1027 hPa | - | - | - | - |
| 1777660845 | 15.56° C | 48% | 1026.9 hPa | - | - | - | - |
| 1777659944 | 16.11° C | 46% | 1026.7 hPa | - | - | - | - |
| 1777659043 | 18.33° C | 44% | 1026.5 hPa | - | - | - | - |
| 1777659027 | 18.89° C | 45% | 1026.6 hPa | - | - | - | - |
| 1777659002 | 16.67° C | 45% | 1026.5 hPa | - | - | - | - |
| 1777658101 | 17.78° C | 42% | 1026.5 hPa | - | - | - | - |
| 1777657200 | 18.89° C | 39% | 1026.4 hPa | - | - | - | - |
| 1777656299 | 21.67° C | 34% | 1026.3 hPa | - | - | - | - |
| 1777656283 | 22.78° C | 34% | 1026.3 hPa | - | - | - | - |
| 1777656258 | 20.56° C | 34% | 1026.3 hPa | - | - | - | - |
| 1777655357 | 26.67° C | 25% | 1026.6 hPa | - | - | - | - |
* Rain since midnight (hover to see other rain measurements)
** Current wind speed in m/s (hover to see current wind gust speed)